sensor_id;sensor_type;location;lat;lon;timestamp;temperature;humidity
22426;DHT22;11380;50.822;15.790;2023-05-16T00:03:48;7.40;99.90
22426;DHT22;11380;50.822;15.790;2023-05-16T00:08:56;7.60;99.90
22426;DHT22;11380;50.822;15.790;2023-05-16T00:14:04;7.50;99.90
22426;DHT22;11380;50.822;15.790;2023-05-16T00:19:12;7.40;99.90
22426;DHT22;11380;50.822;15.790;2023-05-16T00:24:20;7.40;99.90
22426;DHT22;11380;50.822;15.790;2023-05-16T00:29:28;7.40;99.90
22426;DHT22;11380;50.822;15.790;2023-05-16T00:34:37;7.50;99.90
22426;DHT22;11380;50.822;15.790;2023-05-16T00:39:45;7.50;99.90
22426;DHT22;11380;50.822;15.790;2023-05-16T00:44:52;7.30;99.90
22426;DHT22;11380;50.822;15.790;2023-05-16T00:49:59;7.20;99.90
22426;DHT22;11380;50.822;15.790;2023-05-16T00:55:06;7.20;99.90
22426;DHT22;11380;50.822;15.790;2023-05-16T01:00:16;7.00;99.90
22426;DHT22;11380;50.822;15.790;2023-05-16T01:05:24;7.10;99.90
22426;DHT22;11380;50.822;15.790;2023-05-16T01:10:49;7.40;99.90
22426;DHT22;11380;50.822;15.790;2023-05-16T01:21:51;7.20;99.90
22426;DHT22;11380;50.822;15.790;2023-05-16T01:27:03;7.00;99.90
22426;DHT22;11380;50.822;15.790;2023-05-16T01:32:10;7.10;99.90
22426;DHT22;11380;50.822;15.790;2023-05-16T01:37:23;7.10;99.90
22426;DHT22;11380;50.822;15.790;2023-05-16T01:42:32;6.90;99.90
22426;DHT22;11380;50.822;15.790;2023-05-16T01:47:44;7.00;99.90
22426;DHT22;11380;50.822;15.790;2023-05-16T01:53:05;6.90;99.90
22426;DHT22;11380;50.822;15.790;2023-05-16T01:58:15;6.80;99.90
22426;DHT22;11380;50.822;15.790;2023-05-16T02:03:24;6.80;99.90
22426;DHT22;11380;50.822;15.790;2023-05-16T02:08:30;6.80;99.90
22426;DHT22;11380;50.822;15.790;2023-05-16T02:13:38;6.80;99.90
22426;DHT22;11380;50.822;15.790;2023-05-16T02:18:46;6.80;99.90
22426;DHT22;11380;50.822;15.790;2023-05-16T02:23:53;6.80;99.90
22426;DHT22;11380;50.822;15.790;2023-05-16T02:29:00;6.90;99.90
22426;DHT22;11380;50.822;15.790;2023-05-16T02:34:07;6.90;99.90
22426;DHT22;11380;50.822;15.790;2023-05-16T02:39:15;6.90;99.90
22426;DHT22;11380;50.822;15.790;2023-05-16T02:44:24;6.80;99.90
22426;DHT22;11380;50.822;15.790;2023-05-16T02:49:32;6.80;99.90
22426;DHT22;11380;50.822;15.790;2023-05-16T02:54:39;6.80;99.90
22426;DHT22;11380;50.822;15.790;2023-05-16T02:59:46;6.90;99.90
22426;DHT22;11380;50.822;15.790;2023-05-16T03:04:53;7.00;99.90
22426;DHT22;11380;50.822;15.790;2023-05-16T03:10:01;7.00;99.90
22426;DHT22;11380;50.822;15.790;2023-05-16T03:15:09;6.90;99.90
22426;DHT22;11380;50.822;15.790;2023-05-16T03:20:16;6.80;99.90
22426;DHT22;11380;50.822;15.790;2023-05-16T03:25:24;6.50;99.90
22426;DHT22;11380;50.822;15.790;2023-05-16T03:30:31;6.40;99.90
22426;DHT22;11380;50.822;15.790;2023-05-16T03:35:39;6.70;99.90
22426;DHT22;11380;50.822;15.790;2023-05-16T03:40:48;6.70;99.90
22426;DHT22;11380;50.822;15.790;2023-05-16T03:45:55;6.80;99.90
22426;DHT22;11380;50.822;15.790;2023-05-16T03:51:03;7.10;99.90
22426;DHT22;11380;50.822;15.790;2023-05-16T03:56:10;6.80;99.90
22426;DHT22;11380;50.822;15.790;2023-05-16T04:01:17;7.20;99.90
22426;DHT22;11380;50.822;15.790;2023-05-16T04:06:26;7.60;99.90
22426;DHT22;11380;50.822;15.790;2023-05-16T04:11:33;7.80;99.90
22426;DHT22;11380;50.822;15.790;2023-05-16T04:16:40;7.90;99.90
22426;DHT22;11380;50.822;15.790;2023-05-16T04:21:48;8.40;99.90
22426;DHT22;11380;50.822;15.790;2023-05-16T04:26:56;8.70;99.90
22426;DHT22;11380;50.822;15.790;2023-05-16T04:32:03;8.70;99.90
22426;DHT22;11380;50.822;15.790;2023-05-16T04:37:11;9.00;99.90
22426;DHT22;11380;50.822;15.790;2023-05-16T04:42:18;9.10;99.90
22426;DHT22;11380;50.822;15.790;2023-05-16T04:47:26;9.50;99.90
22426;DHT22;11380;50.822;15.790;2023-05-16T04:52:33;9.80;99.90
22426;DHT22;11380;50.822;15.790;2023-05-16T04:57:43;10.10;99.90
22426;DHT22;11380;50.822;15.790;2023-05-16T05:02:51;10.30;99.90
22426;DHT22;11380;50.822;15.790;2023-05-16T05:07:58;10.50;99.90
22426;DHT22;11380;50.822;15.790;2023-05-16T05:13:05;11.00;99.90
22426;DHT22;11380;50.822;15.790;2023-05-16T05:18:12;11.60;99.90
22426;DHT22;11380;50.822;15.790;2023-05-16T05:23:19;11.70;99.90
22426;DHT22;11380;50.822;15.790;2023-05-16T05:28:26;11.80;99.90
22426;DHT22;11380;50.822;15.790;2023-05-16T05:33:33;12.10;99.90
22426;DHT22;11380;50.822;15.790;2023-05-16T05:38:39;12.50;99.90
22426;DHT22;11380;50.822;15.790;2023-05-16T05:43:46;12.80;99.90
22426;DHT22;11380;50.822;15.790;2023-05-16T05:48:53;13.10;99.90
22426;DHT22;11380;50.822;15.790;2023-05-16T05:54:01;13.30;99.90
22426;DHT22;11380;50.822;15.790;2023-05-16T05:59:08;13.50;90.90
22426;DHT22;11380;50.822;15.790;2023-05-16T06:04:15;13.70;1.00
22426;DHT22;11380;50.822;15.790;2023-05-16T06:09:22;13.80;1.00
22426;DHT22;11380;50.822;15.790;2023-05-16T06:14:29;13.90;1.00
22426;DHT22;11380;50.822;15.790;2023-05-16T06:19:36;14.00;1.00
22426;DHT22;11380;50.822;15.790;2023-05-16T06:24:43;14.20;1.00
22426;DHT22;11380;50.822;15.790;2023-05-16T06:29:51;14.30;1.00
22426;DHT22;11380;50.822;15.790;2023-05-16T06:34:57;14.40;1.00
22426;DHT22;11380;50.822;15.790;2023-05-16T06:40:05;14.20;1.00
22426;DHT22;11380;50.822;15.790;2023-05-16T06:45:12;13.90;1.00
22426;DHT22;11380;50.822;15.790;2023-05-16T06:50:20;13.70;1.00
22426;DHT22;11380;50.822;15.790;2023-05-16T06:55:27;14.00;1.00
22426;DHT22;11380;50.822;15.790;2023-05-16T07:00:34;14.10;1.00
22426;DHT22;11380;50.822;15.790;2023-05-16T07:05:41;13.90;1.00
22426;DHT22;11380;50.822;15.790;2023-05-16T07:10:48;14.30;1.00
22426;DHT22;11380;50.822;15.790;2023-05-16T07:15:55;14.30;1.00
22426;DHT22;11380;50.822;15.790;2023-05-16T07:21:01;14.10;1.00
22426;DHT22;11380;50.822;15.790;2023-05-16T07:26:07;13.90;1.00
22426;DHT22;11380;50.822;15.790;2023-05-16T07:31:13;13.90;1.00
22426;DHT22;11380;50.822;15.790;2023-05-16T07:36:20;14.20;1.00
22426;DHT22;11380;50.822;15.790;2023-05-16T07:41:28;14.00;1.00
22426;DHT22;11380;50.822;15.790;2023-05-16T07:46:36;14.20;1.00
22426;DHT22;11380;50.822;15.790;2023-05-16T07:51:43;13.90;1.00
22426;DHT22;11380;50.822;15.790;2023-05-16T07:56:50;14.00;1.00
22426;DHT22;11380;50.822;15.790;2023-05-16T08:01:57;14.00;1.00
22426;DHT22;11380;50.822;15.790;2023-05-16T08:07:04;14.10;1.00
22426;DHT22;11380;50.822;15.790;2023-05-16T08:12:11;14.60;1.00
22426;DHT22;11380;50.822;15.790;2023-05-16T08:17:19;15.00;1.00
22426;DHT22;11380;50.822;15.790;2023-05-16T08:22:26;14.80;1.00
22426;DHT22;11380;50.822;15.790;2023-05-16T08:27:33;15.10;1.00
22426;DHT22;11380;50.822;15.790;2023-05-16T08:32:41;14.80;1.00
22426;DHT22;11380;50.822;15.790;2023-05-16T08:37:48;15.00;1.00
22426;DHT22;11380;50.822;15.790;2023-05-16T08:42:55;15.10;1.00
22426;DHT22;11380;50.822;15.790;2023-05-16T08:48:03;15.20;1.00
22426;DHT22;11380;50.822;15.790;2023-05-16T08:53:14;15.00;1.00
22426;DHT22;11380;50.822;15.790;2023-05-16T08:58:24;14.90;1.00
22426;DHT22;11380;50.822;15.790;2023-05-16T09:03:36;15.40;1.00
22426;DHT22;11380;50.822;15.790;2023-05-16T09:08:43;15.70;1.00
22426;DHT22;11380;50.822;15.790;2023-05-16T09:13:50;15.80;1.00
22426;DHT22;11380;50.822;15.790;2023-05-16T09:18:59;15.80;1.00
22426;DHT22;11380;50.822;15.790;2023-05-16T09:24:08;15.80;1.00
22426;DHT22;11380;50.822;15.790;2023-05-16T09:29:15;15.80;1.00
22426;DHT22;11380;50.822;15.790;2023-05-16T09:34:24;15.60;1.00
22426;DHT22;11380;50.822;15.790;2023-05-16T09:39:31;15.60;99.90
22426;DHT22;11380;50.822;15.790;2023-05-16T09:44:39;15.60;99.90
22426;DHT22;11380;50.822;15.790;2023-05-16T09:49:50;16.00;1.00
22426;DHT22;11380;50.822;15.790;2023-05-16T09:54:58;16.20;99.90
22426;DHT22;11380;50.822;15.790;2023-05-16T10:00:10;15.30;99.90
22426;DHT22;11380;50.822;15.790;2023-05-16T10:05:18;15.20;99.90
22426;DHT22;11380;50.822;15.790;2023-05-16T10:10:26;15.30;99.90
22426;DHT22;11380;50.822;15.790;2023-05-16T10:15:35;15.00;99.90
22426;DHT22;11380;50.822;15.790;2023-05-16T10:20:45;14.70;1.00
22426;DHT22;11380;50.822;15.790;2023-05-16T10:25:54;14.40;1.00
22426;DHT22;11380;50.822;15.790;2023-05-16T10:31:04;14.30;1.00
22426;DHT22;11380;50.822;15.790;2023-05-16T10:36:13;14.40;1.00
22426;DHT22;11380;50.822;15.790;2023-05-16T10:41:22;14.40;1.00
22426;DHT22;11380;50.822;15.790;2023-05-16T10:46:30;14.40;1.00
22426;DHT22;11380;50.822;15.790;2023-05-16T10:51:38;14.00;1.00
22426;DHT22;11380;50.822;15.790;2023-05-16T10:56:48;13.80;1.00
22426;DHT22;11380;50.822;15.790;2023-05-16T11:01:56;13.70;1.00
22426;DHT22;11380;50.822;15.790;2023-05-16T11:07:03;13.50;1.00
22426;DHT22;11380;50.822;15.790;2023-05-16T11:12:11;13.60;1.00
22426;DHT22;11380;50.822;15.790;2023-05-16T11:17:22;13.50;1.00
22426;DHT22;11380;50.822;15.790;2023-05-16T11:22:37;13.50;1.00
22426;DHT22;11380;50.822;15.790;2023-05-16T11:27:47;13.20;1.00
22426;DHT22;11380;50.822;15.790;2023-05-16T11:32:54;13.00;1.00
22426;DHT22;11380;50.822;15.790;2023-05-16T11:38:01;12.90;1.00
22426;DHT22;11380;50.822;15.790;2023-05-16T11:43:09;12.80;1.00
22426;DHT22;11380;50.822;15.790;2023-05-16T11:48:16;12.70;1.00
22426;DHT22;11380;50.822;15.790;2023-05-16T11:53:26;12.50;1.00
22426;DHT22;11380;50.822;15.790;2023-05-16T11:58:34;12.50;1.00
22426;DHT22;11380;50.822;15.790;2023-05-16T12:03:43;12.30;1.00
22426;DHT22;11380;50.822;15.790;2023-05-16T12:08:54;12.40;1.00
22426;DHT22;11380;50.822;15.790;2023-05-16T12:14:03;12.30;1.00
22426;DHT22;11380;50.822;15.790;2023-05-16T12:19:13;12.30;1.00
22426;DHT22;11380;50.822;15.790;2023-05-16T12:24:21;12.20;1.00
22426;DHT22;11380;50.822;15.790;2023-05-16T12:29:33;12.00;1.00
22426;DHT22;11380;50.822;15.790;2023-05-16T12:34:47;11.90;1.00
22426;DHT22;11380;50.822;15.790;2023-05-16T12:40:00;12.00;1.00
22426;DHT22;11380;50.822;15.790;2023-05-16T12:45:15;11.90;1.00
22426;DHT22;11380;50.822;15.790;2023-05-16T12:50:25;11.60;1.00
22426;DHT22;11380;50.822;15.790;2023-05-16T12:55:34;11.80;1.00
22426;DHT22;11380;50.822;15.790;2023-05-16T13:00:42;11.80;1.00
22426;DHT22;11380;50.822;15.790;2023-05-16T13:05:49;11.70;1.00
22426;DHT22;11380;50.822;15.790;2023-05-16T13:10:56;11.60;1.00
22426;DHT22;11380;50.822;15.790;2023-05-16T13:16:05;11.50;1.00
22426;DHT22;11380;50.822;15.790;2023-05-16T13:21:12;11.30;1.00
22426;DHT22;11380;50.822;15.790;2023-05-16T13:26:26;11.20;26.80
22426;DHT22;11380;50.822;15.790;2023-05-16T13:31:29;11.20;13.10
22426;DHT22;11380;50.822;15.790;2023-05-16T13:36:37;11.20;38.60
22426;DHT22;11380;50.822;15.790;2023-05-16T13:41:46;11.30;35.40
22426;DHT22;11380;50.822;15.790;2023-05-16T13:46:54;11.10;37.00
22426;DHT22;11380;50.822;15.790;2023-05-16T13:52:03;11.00;99.90
22426;DHT22;11380;50.822;15.790;2023-05-16T13:57:11;10.90;99.90
22426;DHT22;11380;50.822;15.790;2023-05-16T14:02:19;10.70;99.90
22426;DHT22;11380;50.822;15.790;2023-05-16T14:07:26;10.90;99.90
22426;DHT22;11380;50.822;15.790;2023-05-16T14:12:35;10.80;99.90
22426;DHT22;11380;50.822;15.790;2023-05-16T14:17:42;10.70;99.90
22426;DHT22;11380;50.822;15.790;2023-05-16T14:22:48;10.60;99.90
22426;DHT22;11380;50.822;15.790;2023-05-16T14:27:54;10.60;99.90
22426;DHT22;11380;50.822;15.790;2023-05-16T14:33:03;10.50;99.90
22426;DHT22;11380;50.822;15.790;2023-05-16T14:38:11;10.50;99.90
22426;DHT22;11380;50.822;15.790;2023-05-16T14:43:18;10.50;99.90
22426;DHT22;11380;50.822;15.790;2023-05-16T14:48:26;10.70;99.90
22426;DHT22;11380;50.822;15.790;2023-05-16T14:53:32;10.60;99.90
22426;DHT22;11380;50.822;15.790;2023-05-16T14:58:41;10.60;99.90
22426;DHT22;11380;50.822;15.790;2023-05-16T15:03:48;10.70;99.90
22426;DHT22;11380;50.822;15.790;2023-05-16T15:08:57;10.70;99.90
22426;DHT22;11380;50.822;15.790;2023-05-16T15:14:04;10.70;99.90
22426;DHT22;11380;50.822;15.790;2023-05-16T15:19:12;10.70;99.90
22426;DHT22;11380;50.822;15.790;2023-05-16T15:24:20;10.80;99.90
22426;DHT22;11380;50.822;15.790;2023-05-16T15:29:27;10.70;99.90
22426;DHT22;11380;50.822;15.790;2023-05-16T15:34:34;10.60;99.90
22426;DHT22;11380;50.822;15.790;2023-05-16T15:39:42;10.70;99.90
22426;DHT22;11380;50.822;15.790;2023-05-16T15:44:50;10.70;99.90
22426;DHT22;11380;50.822;15.790;2023-05-16T15:49:58;10.70;99.90
22426;DHT22;11380;50.822;15.790;2023-05-16T15:55:05;10.60;99.90
22426;DHT22;11380;50.822;15.790;2023-05-16T16:00:14;10.50;99.90
22426;DHT22;11380;50.822;15.790;2023-05-16T16:05:21;10.60;99.90
22426;DHT22;11380;50.822;15.790;2023-05-16T16:10:29;10.70;99.90
22426;DHT22;11380;50.822;15.790;2023-05-16T16:15:37;10.70;99.90
22426;DHT22;11380;50.822;15.790;2023-05-16T16:20:46;10.80;99.90
22426;DHT22;11380;50.822;15.790;2023-05-16T16:25:53;10.70;99.90
22426;DHT22;11380;50.822;15.790;2023-05-16T16:31:00;10.60;99.90
22426;DHT22;11380;50.822;15.790;2023-05-16T16:36:07;10.60;99.90
22426;DHT22;11380;50.822;15.790;2023-05-16T16:41:15;10.50;99.90
22426;DHT22;11380;50.822;15.790;2023-05-16T16:46:22;10.40;99.90
22426;DHT22;11380;50.822;15.790;2023-05-16T16:51:30;10.20;99.90
22426;DHT22;11380;50.822;15.790;2023-05-16T16:56:40;10.20;99.90
22426;DHT22;11380;50.822;15.790;2023-05-16T17:01:48;10.20;99.90
22426;DHT22;11380;50.822;15.790;2023-05-16T17:06:55;10.20;99.90
22426;DHT22;11380;50.822;15.790;2023-05-16T17:12:02;10.10;99.90
22426;DHT22;11380;50.822;15.790;2023-05-16T17:17:11;10.20;99.90
22426;DHT22;11380;50.822;15.790;2023-05-16T17:22:19;10.20;99.90
22426;DHT22;11380;50.822;15.790;2023-05-16T17:27:26;10.20;99.90
22426;DHT22;11380;50.822;15.790;2023-05-16T17:32:32;10.10;99.90
22426;DHT22;11380;50.822;15.790;2023-05-16T17:37:39;10.10;99.90
22426;DHT22;11380;50.822;15.790;2023-05-16T17:42:46;10.20;99.90
22426;DHT22;11380;50.822;15.790;2023-05-16T17:47:55;10.10;99.90
22426;DHT22;11380;50.822;15.790;2023-05-16T17:53:02;10.10;99.90
22426;DHT22;11380;50.822;15.790;2023-05-16T17:58:11;10.10;99.90
22426;DHT22;11380;50.822;15.790;2023-05-16T18:03:18;9.90;99.90
22426;DHT22;11380;50.822;15.790;2023-05-16T18:08:26;10.00;99.90
22426;DHT22;11380;50.822;15.790;2023-05-16T18:13:34;9.90;99.90
22426;DHT22;11380;50.822;15.790;2023-05-16T18:18:43;9.90;99.90
22426;DHT22;11380;50.822;15.790;2023-05-16T18:23:50;9.80;99.90
22426;DHT22;11380;50.822;15.790;2023-05-16T18:29:00;9.80;99.90
22426;DHT22;11380;50.822;15.790;2023-05-16T18:34:09;9.80;99.90
22426;DHT22;11380;50.822;15.790;2023-05-16T18:39:17;9.70;99.90
22426;DHT22;11380;50.822;15.790;2023-05-16T18:44:25;9.70;99.90
22426;DHT22;11380;50.822;15.790;2023-05-16T18:49:32;9.70;99.90
22426;DHT22;11380;50.822;15.790;2023-05-16T18:54:42;9.70;99.90
22426;DHT22;11380;50.822;15.790;2023-05-16T18:59:49;9.70;99.90
22426;DHT22;11380;50.822;15.790;2023-05-16T19:05:01;9.60;99.90
22426;DHT22;11380;50.822;15.790;2023-05-16T19:10:09;9.60;99.90
22426;DHT22;11380;50.822;15.790;2023-05-16T19:15:17;9.70;99.90
22426;DHT22;11380;50.822;15.790;2023-05-16T19:20:25;9.60;99.90
22426;DHT22;11380;50.822;15.790;2023-05-16T19:25:33;9.50;99.90
22426;DHT22;11380;50.822;15.790;2023-05-16T19:30:40;9.60;99.90
22426;DHT22;11380;50.822;15.790;2023-05-16T19:35:47;9.50;99.90
22426;DHT22;11380;50.822;15.790;2023-05-16T19:40:58;9.50;99.90
22426;DHT22;11380;50.822;15.790;2023-05-16T19:46:07;9.50;99.90
22426;DHT22;11380;50.822;15.790;2023-05-16T19:51:15;9.50;99.90
22426;DHT22;11380;50.822;15.790;2023-05-16T19:56:25;9.50;99.90
22426;DHT22;11380;50.822;15.790;2023-05-16T20:01:32;9.40;99.90
22426;DHT22;11380;50.822;15.790;2023-05-16T20:06:39;9.40;99.90
22426;DHT22;11380;50.822;15.790;2023-05-16T20:11:47;9.40;99.90
22426;DHT22;11380;50.822;15.790;2023-05-16T20:16:54;9.40;99.90
22426;DHT22;11380;50.822;15.790;2023-05-16T20:22:02;9.40;99.90
22426;DHT22;11380;50.822;15.790;2023-05-16T20:27:10;9.30;99.90
22426;DHT22;11380;50.822;15.790;2023-05-16T20:32:20;9.30;99.90
22426;DHT22;11380;50.822;15.790;2023-05-16T20:37:28;9.30;99.90
22426;DHT22;11380;50.822;15.790;2023-05-16T20:42:38;9.40;99.90
22426;DHT22;11380;50.822;15.790;2023-05-16T20:47:46;9.40;99.90
22426;DHT22;11380;50.822;15.790;2023-05-16T20:52:57;9.40;99.90
22426;DHT22;11380;50.822;15.790;2023-05-16T20:58:04;9.40;99.90
22426;DHT22;11380;50.822;15.790;2023-05-16T21:03:11;9.40;99.90
22426;DHT22;11380;50.822;15.790;2023-05-16T21:08:21;9.40;99.90
22426;DHT22;11380;50.822;15.790;2023-05-16T21:13:29;9.30;99.90
22426;DHT22;11380;50.822;15.790;2023-05-16T21:18:36;9.40;99.90
22426;DHT22;11380;50.822;15.790;2023-05-16T21:23:44;9.50;99.90
22426;DHT22;11380;50.822;15.790;2023-05-16T21:28:51;9.40;99.90
22426;DHT22;11380;50.822;15.790;2023-05-16T21:34:03;9.40;99.90
22426;DHT22;11380;50.822;15.790;2023-05-16T21:39:10;9.40;99.90
22426;DHT22;11380;50.822;15.790;2023-05-16T21:44:17;9.30;99.90
22426;DHT22;11380;50.822;15.790;2023-05-16T21:49:26;9.30;99.90
22426;DHT22;11380;50.822;15.790;2023-05-16T21:54:33;9.20;99.90
22426;DHT22;11380;50.822;15.790;2023-05-16T21:59:41;9.40;99.90
22426;DHT22;11380;50.822;15.790;2023-05-16T22:04:49;9.20;99.90
22426;DHT22;11380;50.822;15.790;2023-05-16T22:09:57;9.00;99.90
22426;DHT22;11380;50.822;15.790;2023-05-16T22:15:05;9.00;99.90
22426;DHT22;11380;50.822;15.790;2023-05-16T22:20:13;9.00;99.90
22426;DHT22;11380;50.822;15.790;2023-05-16T22:25:21;9.00;99.90
22426;DHT22;11380;50.822;15.790;2023-05-16T22:30:29;9.10;99.90
22426;DHT22;11380;50.822;15.790;2023-05-16T22:35:36;9.30;99.90
22426;DHT22;11380;50.822;15.790;2023-05-16T22:40:44;9.40;99.90
22426;DHT22;11380;50.822;15.790;2023-05-16T22:45:51;9.20;99.90
22426;DHT22;11380;50.822;15.790;2023-05-16T22:50:59;9.30;99.90
22426;DHT22;11380;50.822;15.790;2023-05-16T22:56:07;9.30;99.90
22426;DHT22;11380;50.822;15.790;2023-05-16T23:01:14;9.20;99.90
22426;DHT22;11380;50.822;15.790;2023-05-16T23:06:21;9.30;99.90
22426;DHT22;11380;50.822;15.790;2023-05-16T23:11:29;9.30;99.90
22426;DHT22;11380;50.822;15.790;2023-05-16T23:16:38;9.30;99.90
22426;DHT22;11380;50.822;15.790;2023-05-16T23:21:45;9.40;99.90
22426;DHT22;11380;50.822;15.790;2023-05-16T23:26:52;9.20;99.90
22426;DHT22;11380;50.822;15.790;2023-05-16T23:31:59;9.20;99.90
22426;DHT22;11380;50.822;15.790;2023-05-16T23:37:06;9.30;99.90
22426;DHT22;11380;50.822;15.790;2023-05-16T23:42:13;9.20;99.90
22426;DHT22;11380;50.822;15.790;2023-05-16T23:47:20;9.20;99.90
22426;DHT22;11380;50.822;15.790;2023-05-16T23:52:27;9.30;99.90
22426;DHT22;11380;50.822;15.790;2023-05-16T23:57:33;9.10;99.90
